Terminal Aerodrome Forecast
Issued by NWS

Home | Current Version | Previous Version | Graphics & Text | Print | Product List | Glossary On
Versions: 1 2 3 4 5 6 7 8 9 10 11 12 13 14
881
FTUS43 KMPX 131120
TAFRWF
TAF
KRWF 131120Z 1312/1412 VRB03KT P6SM BKN110
     FM131500 13006KT P6SM OVC060
     FM131800 14009KT P6SM SCT025 OVC040
     FM140100 16007KT P6SM SKC=

USA.gov is the U.S. government's official web portal to all federal, state and local government web resources and services.